createdAt,value
2018-08-30T00:02:08.430Z,3.73
2018-08-30T00:04:38.685Z,5.17
2018-08-30T00:07:08.871Z,5.45
2018-08-30T00:09:39.121Z,5.15
2018-08-30T00:12:08.984Z,5.20
2018-08-30T00:14:38.723Z,4.80
2018-08-30T00:17:08.046Z,7.20
2018-08-30T00:19:37.367Z,6.70
2018-08-30T00:22:06.468Z,4.70
2018-08-30T00:24:35.804Z,4.67
2018-08-30T00:27:05.133Z,3.93
2018-08-30T00:29:34.459Z,6.53
2018-08-30T00:32:03.815Z,4.00
2018-08-30T00:34:33.141Z,5.20
2018-08-30T00:37:02.686Z,4.57
2018-08-30T00:39:31.997Z,5.17
2018-08-30T00:42:01.329Z,6.17
2018-08-30T00:44:30.885Z,5.27
2018-08-30T00:47:00.199Z,4.60
2018-08-30T00:49:29.549Z,3.93
2018-08-30T00:51:58.862Z,3.90
2018-08-30T00:54:28.196Z,5.80
2018-08-30T00:56:57.780Z,4.60
2018-08-30T00:59:27.097Z,6.03
2018-08-30T01:01:56.464Z,4.63
2018-08-30T01:04:26.037Z,7.28
2018-08-30T01:06:55.332Z,5.57
2018-08-30T01:09:24.645Z,5.07
2018-08-30T01:11:53.965Z,4.20
2018-08-30T01:14:23.292Z,12.10
2018-08-30T01:16:52.868Z,6.03
2018-08-30T01:19:22.204Z,4.47
2018-08-30T01:21:51.541Z,4.47
2018-08-30T01:24:21.093Z,4.80
2018-08-30T01:26:50.390Z,4.00
2018-08-30T01:29:19.729Z,4.60
2018-08-30T01:31:49.125Z,5.37
2018-08-30T01:34:18.484Z,3.60
2018-08-30T01:36:47.813Z,3.97
2018-08-30T01:39:16.915Z,5.37
2018-08-30T01:41:46.013Z,4.00
2018-08-30T01:44:15.125Z,4.40
2018-08-30T01:46:44.242Z,3.90
2018-08-30T01:49:13.572Z,4.60
2018-08-30T01:51:43.120Z,4.97
2018-08-30T01:54:12.673Z,3.93
2018-08-30T01:56:41.983Z,4.50
2018-08-30T01:59:11.335Z,4.90
2018-08-30T02:01:40.652Z,4.57
2018-08-30T02:04:09.991Z,4.13
2018-08-30T02:06:39.552Z,3.80
2018-08-30T02:09:08.859Z,4.67
2018-08-30T02:11:38.201Z,3.93
2018-08-30T02:14:07.744Z,4.90
2018-08-30T02:16:37.056Z,4.33
2018-08-30T02:19:06.151Z,4.07
2018-08-30T02:21:35.259Z,4.40
2018-08-30T02:24:04.601Z,3.83
2018-08-30T02:26:33.908Z,4.23
2018-08-30T02:29:03.262Z,4.83
2018-08-30T02:31:32.797Z,4.47
2018-08-30T02:34:02.117Z,3.93
2018-08-30T02:36:31.547Z,4.47
2018-08-30T02:39:01.105Z,4.12
2018-08-30T02:41:30.404Z,4.07
2018-08-30T02:43:59.736Z,6.10
2018-08-30T02:46:29.300Z,4.30
2018-08-30T02:48:58.643Z,4.20
2018-08-30T02:51:27.954Z,5.80
2018-08-30T02:53:57.484Z,3.37
2018-08-30T02:56:26.822Z,3.93
2018-08-30T02:58:56.156Z,3.40
2018-08-30T03:01:25.489Z,3.17
2018-08-30T03:03:54.827Z,3.40
2018-08-30T03:06:24.136Z,3.47
2018-08-30T03:08:53.460Z,4.07
2018-08-30T03:11:23.013Z,3.90
2018-08-30T03:13:52.320Z,5.10
2018-08-30T03:16:21.632Z,4.87
2018-08-30T03:18:51.161Z,4.10
2018-08-30T03:21:20.479Z,4.73
2018-08-30T03:23:49.836Z,5.33
2018-08-30T03:26:19.169Z,3.80
2018-08-30T03:28:48.496Z,4.73
2018-08-30T03:31:17.802Z,4.13
2018-08-30T03:33:47.145Z,4.67
2018-08-30T03:36:17.078Z,3.40
2018-08-30T03:38:46.424Z,5.10
2018-08-30T03:41:15.751Z,3.40
2018-08-30T03:43:45.084Z,3.50
2018-08-30T03:46:14.650Z,4.47
2018-08-30T03:48:44.200Z,6.23
2018-08-30T03:51:13.509Z,5.40
2018-08-30T03:53:43.057Z,3.40
2018-08-30T03:56:12.356Z,3.37
2018-08-30T03:58:41.694Z,4.60
2018-08-30T04:01:11.235Z,3.97
2018-08-30T04:03:40.545Z,2.97
2018-08-30T04:06:09.896Z,4.73
2018-08-30T04:08:39.207Z,4.17
2018-08-30T04:11:08.287Z,3.53
2018-08-30T04:13:37.446Z,3.77
2018-08-30T04:16:06.464Z,3.67
2018-08-30T04:18:35.587Z,3.30
2018-08-30T04:21:05.141Z,3.53
2018-08-30T04:23:34.704Z,3.67
2018-08-30T04:26:04.020Z,4.17
2018-08-30T04:28:33.380Z,4.37
2018-08-30T04:31:02.933Z,3.80
2018-08-30T04:33:32.250Z,3.23
2018-08-30T04:36:01.594Z,3.47
2018-08-30T04:38:30.920Z,3.30
2018-08-30T04:41:00.289Z,3.23
2018-08-30T04:43:29.390Z,4.60
2018-08-30T04:45:58.480Z,3.60
2018-08-30T04:48:27.809Z,3.30
2018-08-30T04:50:57.114Z,3.73
2018-08-30T04:53:26.449Z,7.70
2018-08-30T04:55:55.744Z,2.80
2018-08-30T04:58:25.087Z,3.20
2018-08-30T05:00:54.627Z,3.53
2018-08-30T05:03:23.955Z,4.43
2018-08-30T05:05:53.407Z,4.43
2018-08-30T05:08:23.320Z,2.90
2018-08-30T05:10:52.451Z,9.23
2018-08-30T05:13:22.034Z,3.07
2018-08-30T05:15:51.612Z,2.97
2018-08-30T05:18:21.278Z,2.90
2018-08-30T05:20:51.377Z,4.17
2018-08-30T05:23:20.969Z,4.30
2018-08-30T05:25:50.796Z,3.73
2018-08-30T05:28:19.908Z,4.10
2018-08-30T05:30:49.244Z,9.60
2018-08-30T05:33:19.087Z,3.20
2018-08-30T05:35:48.505Z,3.33
2018-08-30T05:38:17.713Z,3.43
2018-08-30T05:40:46.820Z,3.43
2018-08-30T05:43:15.925Z,3.57
2018-08-30T05:45:45.284Z,6.77
2018-08-30T05:48:14.837Z,3.93
2018-08-30T05:50:44.448Z,2.80
2018-08-30T05:53:14.124Z,5.47
2018-08-30T05:55:43.494Z,3.53
2018-08-30T05:58:13.171Z,2.93
2018-08-30T06:00:42.544Z,5.37
2018-08-30T06:03:12.115Z,3.10
2018-08-30T06:05:41.432Z,5.10
2018-08-30T06:08:10.619Z,3.00
2018-08-30T06:10:39.709Z,2.83
2018-08-30T06:13:09.107Z,3.10
2018-08-30T06:15:39.077Z,4.77
2018-08-30T06:18:08.393Z,4.17
2018-08-30T06:20:37.724Z,3.87
2018-08-30T06:23:07.286Z,3.67
2018-08-30T06:25:36.896Z,3.17
2018-08-30T06:28:07.445Z,5.47
2018-08-30T06:30:36.582Z,4.45
2018-08-30T06:33:05.912Z,6.33
2018-08-30T06:35:35.473Z,3.63
2018-08-30T06:38:05.464Z,4.53
2018-08-30T06:40:35.153Z,3.63
2018-08-30T06:43:04.490Z,2.70
2018-08-30T06:45:34.171Z,4.92
2018-08-30T06:48:03.446Z,3.60
2018-08-30T06:50:32.780Z,3.33
2018-08-30T06:53:02.340Z,3.60
2018-08-30T06:55:31.637Z,4.10
2018-08-30T06:58:01.002Z,3.17
2018-08-30T07:00:30.782Z,6.00
2018-08-30T07:03:00.100Z,5.97
2018-08-30T07:05:29.433Z,3.43
2018-08-30T07:07:58.803Z,4.20
2018-08-30T07:10:28.460Z,4.07
2018-08-30T07:12:57.994Z,4.17
2018-08-30T07:15:27.338Z,5.10
2018-08-30T07:17:56.423Z,2.47
2018-08-30T07:20:25.772Z,9.47
2018-08-30T07:22:55.617Z,3.20
2018-08-30T07:25:25.168Z,7.50
2018-08-30T07:27:55.152Z,7.00
2018-08-30T07:30:25.261Z,11.33
2018-08-30T07:32:55.477Z,10.70
2018-08-30T07:35:25.393Z,8.50
2018-08-30T07:37:55.605Z,12.93
2018-08-30T07:40:25.544Z,10.40
2018-08-30T07:42:55.728Z,10.60
2018-08-30T07:45:25.991Z,9.45
2018-08-30T07:47:56.195Z,10.82
2018-08-30T07:50:26.092Z,9.13
2018-08-30T07:52:56.057Z,9.75
2018-08-30T07:55:26.547Z,7.17
2018-08-30T07:57:56.467Z,8.43
2018-08-30T08:00:26.238Z,19.48
2018-08-30T08:02:55.959Z,12.20
2018-08-30T08:05:25.286Z,9.73
2018-08-30T08:07:54.921Z,7.50
2018-08-30T08:10:24.234Z,10.23
2018-08-30T08:12:53.604Z,12.93
2018-08-30T08:15:23.175Z,6.83
2018-08-30T08:17:52.738Z,14.57
2018-08-30T08:20:22.289Z,8.53
2018-08-30T08:22:51.604Z,8.50
2018-08-30T08:25:20.726Z,5.90
2018-08-30T08:27:50.314Z,6.40
2018-08-30T08:30:19.619Z,5.60
2018-08-30T08:32:48.961Z,6.10
2018-08-30T08:35:18.512Z,6.40
2018-08-30T08:37:47.819Z,4.23
2018-08-30T08:40:17.234Z,6.03
2018-08-30T08:42:46.547Z,5.67
2018-08-30T08:45:15.886Z,6.40
2018-08-30T08:47:45.227Z,5.00
2018-08-30T08:50:14.557Z,28.80
2018-08-30T08:52:44.105Z,8.30
2018-08-30T08:55:13.414Z,5.60
2018-08-30T08:57:42.744Z,8.20
2018-08-30T09:00:12.444Z,7.40
2018-08-30T09:02:41.531Z,5.33
2018-08-30T09:05:11.100Z,3.85
2018-08-30T09:07:40.491Z,3.53
2018-08-30T09:10:10.212Z,13.88
2018-08-30T09:12:39.558Z,3.73
2018-08-30T09:15:09.120Z,5.70
2018-08-30T09:17:38.719Z,6.40
2018-08-30T09:20:08.596Z,5.07
2018-08-30T09:22:37.907Z,6.97
2018-08-30T09:25:07.232Z,8.13
2018-08-30T09:27:36.785Z,8.70
2018-08-30T09:30:06.098Z,4.33
2018-08-30T09:32:35.204Z,6.33
2018-08-30T09:35:04.528Z,4.40
2018-08-30T09:37:34.136Z,5.47
2018-08-30T09:40:03.452Z,11.03
2018-08-30T09:42:32.818Z,6.40
2018-08-30T09:45:02.369Z,8.53
2018-08-30T09:47:31.733Z,11.47
2018-08-30T09:50:01.088Z,7.07
2018-08-30T09:52:30.939Z,3.97
2018-08-30T09:55:00.043Z,5.83
2018-08-30T09:57:29.407Z,4.97
2018-08-30T09:59:59.378Z,5.10
2018-08-30T10:02:35.032Z,5.45
2018-08-30T10:05:04.636Z,8.17
2018-08-30T10:07:33.986Z,4.13
2018-08-30T10:10:03.338Z,6.80
2018-08-30T10:12:32.687Z,5.50
2018-08-30T10:15:02.274Z,4.93
2018-08-30T10:17:31.593Z,5.90
2018-08-30T10:20:00.909Z,5.07
2018-08-30T10:22:30.474Z,8.93
2018-08-30T10:24:59.784Z,9.00
2018-08-30T10:27:29.143Z,3.77
2018-08-30T10:29:58.468Z,3.43
2018-08-30T10:32:27.562Z,4.27
2018-08-30T10:34:56.930Z,10.70
2018-08-30T10:37:26.489Z,3.23
2018-08-30T10:39:56.067Z,4.80
2018-08-30T10:42:25.637Z,3.87
2018-08-30T10:44:55.188Z,3.63
2018-08-30T10:47:24.779Z,5.07
2018-08-30T10:49:54.550Z,4.67
2018-08-30T10:52:23.989Z,2.70
2018-08-30T10:54:53.323Z,9.30
2018-08-30T10:57:22.873Z,3.90
2018-08-30T10:59:52.431Z,3.70
2018-08-30T11:02:21.752Z,3.30
2018-08-30T11:04:51.099Z,3.30
2018-08-30T11:07:20.642Z,4.00
2018-08-30T11:09:49.792Z,4.43
2018-08-30T11:12:19.086Z,5.20
2018-08-30T11:14:48.417Z,3.77
2018-08-30T11:17:17.513Z,4.30
2018-08-30T11:19:46.616Z,3.50
2018-08-30T11:22:15.948Z,4.77
2018-08-30T11:24:45.296Z,4.03
2018-08-30T11:27:14.629Z,4.87
2018-08-30T11:29:50.199Z,4.07
2018-08-30T11:32:19.537Z,4.50
2018-08-30T11:34:48.863Z,8.25
2018-08-30T11:37:18.177Z,3.50
2018-08-30T11:39:47.280Z,4.50
2018-08-30T11:42:16.896Z,8.23
2018-08-30T11:44:46.179Z,6.27
2018-08-30T11:47:15.798Z,5.13
2018-08-30T11:49:45.894Z,4.80
2018-08-30T11:52:15.483Z,4.50
2018-08-30T11:54:44.889Z,4.40
2018-08-30T11:57:14.220Z,5.08
2018-08-30T11:59:43.777Z,7.55
2018-08-30T12:02:13.636Z,4.10
2018-08-30T12:04:42.748Z,4.43
2018-08-30T12:07:12.271Z,4.17
2018-08-30T12:09:42.087Z,5.67
2018-08-30T12:12:11.435Z,5.73
2018-08-30T12:14:40.732Z,6.17
2018-08-30T12:17:09.833Z,4.67
2018-08-30T12:19:38.943Z,4.53
2018-08-30T12:22:08.171Z,8.33
2018-08-30T12:24:37.264Z,5.00
2018-08-30T12:27:06.355Z,4.17
2018-08-30T12:29:35.788Z,7.83
2018-08-30T12:32:04.950Z,4.40
2018-08-30T12:34:34.048Z,4.90
2018-08-30T12:37:03.117Z,4.17
2018-08-30T12:39:32.217Z,3.70
2018-08-30T12:42:02.201Z,4.10
2018-08-30T12:44:32.212Z,4.57
2018-08-30T12:47:02.036Z,13.20
2018-08-30T12:49:31.941Z,14.37
2018-08-30T12:52:01.357Z,20.40
2018-08-30T12:54:30.640Z,15.97
2018-08-30T12:56:59.866Z,11.75
2018-08-30T12:59:34.396Z,21.93
2018-08-30T13:02:04.069Z,14.67
2018-08-30T13:04:33.630Z,16.57
2018-08-30T13:07:03.330Z,20.87
2018-08-30T13:09:33.502Z,9.93
2018-08-30T13:12:03.633Z,15.23
2018-08-30T13:14:33.803Z,9.80
2018-08-30T13:17:03.688Z,15.03
2018-08-30T13:19:33.700Z,9.50
2018-08-30T13:22:03.656Z,16.33
2018-08-30T13:24:33.681Z,8.27
2018-08-30T13:27:02.978Z,9.77
2018-08-30T13:29:32.972Z,14.70
2018-08-30T13:32:02.760Z,7.90
2018-08-30T13:34:31.850Z,14.10
2018-08-30T13:37:00.769Z,10.20
2018-08-30T13:39:30.334Z,13.17
2018-08-30T13:42:00.277Z,16.53
2018-08-30T13:44:29.748Z,14.87
2018-08-30T13:46:59.357Z,13.30
2018-08-30T13:49:28.447Z,9.23
2018-08-30T13:51:58.513Z,11.97
2018-08-30T13:54:27.357Z,16.27
2018-08-30T13:56:57.284Z,11.10
2018-08-30T13:59:26.888Z,18.00
2018-08-30T14:01:56.465Z,11.07
2018-08-30T14:04:25.658Z,9.90
2018-08-30T14:06:55.097Z,9.50
2018-08-30T14:09:24.713Z,12.73
2018-08-30T14:11:54.278Z,19.70
2018-08-30T14:14:23.374Z,19.80
2018-08-30T14:16:53.052Z,14.68
2018-08-30T14:19:22.663Z,21.37
2018-08-30T14:21:52.194Z,19.47
2018-08-30T14:24:21.779Z,10.70
2018-08-30T14:26:51.213Z,6.95
2018-08-30T14:29:20.450Z,10.60
2018-08-30T14:31:50.000Z,18.37
2018-08-30T14:34:19.768Z,10.13
2018-08-30T14:36:48.723Z,9.20
2018-08-30T14:39:18.634Z,11.73
2018-08-30T14:41:47.852Z,12.15
2018-08-30T14:44:17.133Z,18.33
2018-08-30T14:46:46.973Z,13.53
2018-08-30T14:49:16.299Z,13.37
2018-08-30T14:51:45.664Z,15.03
2018-08-30T14:54:15.526Z,18.43
2018-08-30T14:56:44.954Z,16.13
2018-08-30T14:59:14.582Z,26.10
2018-08-30T15:01:44.069Z,13.83
2018-08-30T15:04:13.633Z,12.00
2018-08-30T15:06:43.180Z,12.33
2018-08-30T15:09:12.740Z,9.60
2018-08-30T15:11:42.065Z,8.47
2018-08-30T15:14:11.249Z,7.63
2018-08-30T15:16:40.456Z,10.80
2018-08-30T15:19:09.575Z,11.10
2018-08-30T15:21:38.982Z,18.57
2018-08-30T15:24:08.461Z,12.97
2018-08-30T15:26:37.802Z,12.27
2018-08-30T15:29:07.743Z,11.88
2018-08-30T15:31:36.785Z,11.03
2018-08-30T15:34:06.684Z,9.47
2018-08-30T15:36:36.516Z,12.03
2018-08-30T15:39:07.770Z,9.85
2018-08-30T15:41:37.699Z,6.87
2018-08-30T15:44:07.268Z,10.87
2018-08-30T15:46:37.168Z,7.30
2018-08-30T15:49:07.401Z,9.33
2018-08-30T15:51:37.661Z,12.63
2018-08-30T15:54:07.676Z,11.55
2018-08-30T15:56:37.052Z,9.20
2018-08-30T15:59:07.360Z,13.50
2018-08-30T16:01:37.202Z,10.77
2018-08-30T16:04:06.648Z,6.17
2018-08-30T16:06:37.515Z,9.50
2018-08-30T16:09:09.514Z,9.67
2018-08-30T16:11:39.065Z,7.80
2018-08-30T16:14:08.368Z,10.67
2018-08-30T16:16:37.830Z,7.12
2018-08-30T16:19:08.277Z,6.30
2018-08-30T16:21:38.149Z,9.83
2018-08-30T16:24:08.346Z,8.75
2018-08-30T16:26:38.210Z,6.43
2018-08-30T16:29:08.138Z,6.57
2018-08-30T16:31:38.334Z,6.60
2018-08-30T16:34:08.460Z,7.30
2018-08-30T16:36:38.376Z,7.07
2018-08-30T16:39:09.528Z,6.37
2018-08-30T16:41:38.929Z,6.90
2018-08-30T16:44:09.938Z,7.30
2018-08-30T16:46:39.537Z,7.40
2018-08-30T16:49:09.453Z,8.10
2018-08-30T16:51:38.996Z,10.40
2018-08-30T16:54:09.259Z,7.42
2018-08-30T16:56:39.110Z,7.67
2018-08-30T16:59:09.322Z,8.45
2018-08-30T17:01:39.514Z,11.10
2018-08-30T17:04:09.461Z,7.75
2018-08-30T17:06:39.550Z,7.37
2018-08-30T17:09:09.410Z,7.73
2018-08-30T17:11:39.121Z,17.33
2018-08-30T17:14:08.480Z,8.30
2018-08-30T17:21:31.817Z,9.20
2018-08-30T17:24:01.209Z,13.10
2018-08-30T17:26:31.466Z,9.20
2018-08-30T17:29:01.148Z,12.47
2018-08-30T17:31:30.583Z,12.07
2018-08-30T17:33:59.915Z,10.00
2018-08-30T17:36:29.535Z,16.00
2018-08-30T17:38:58.810Z,11.90
2018-08-30T17:41:28.254Z,9.70
2018-08-30T17:43:57.490Z,6.20
2018-08-30T17:46:28.886Z,8.57
2018-08-30T17:48:58.441Z,6.97
2018-08-30T17:51:27.759Z,8.30
2018-08-30T17:53:57.085Z,5.40
2018-08-30T17:56:26.438Z,9.37
2018-08-30T17:58:55.765Z,11.30
2018-08-30T18:01:25.543Z,8.47
2018-08-30T18:03:55.059Z,6.63
2018-08-30T18:06:24.394Z,7.63
2018-08-30T18:08:53.759Z,7.67
2018-08-30T18:11:23.341Z,11.90
2018-08-30T18:13:52.670Z,10.10
2018-08-30T18:16:22.008Z,19.73
2018-08-30T18:18:51.696Z,8.33
2018-08-30T18:21:21.372Z,11.00
2018-08-30T18:23:50.705Z,7.47
2018-08-30T18:26:20.590Z,10.20
2018-08-30T18:28:49.809Z,7.13
2018-08-30T18:31:18.994Z,8.40
2018-08-30T18:33:48.277Z,11.00
2018-08-30T18:36:17.873Z,9.63
2018-08-30T18:38:47.440Z,10.97
2018-08-30T18:41:16.985Z,7.95
2018-08-30T18:43:46.314Z,8.40
2018-08-30T18:46:15.412Z,7.80
2018-08-30T18:48:44.631Z,6.90
2018-08-30T18:51:14.009Z,12.13
2018-08-30T18:53:43.532Z,8.37
2018-08-30T18:56:12.864Z,12.03
2018-08-30T18:58:42.657Z,6.00
2018-08-30T19:01:12.578Z,9.50
2018-08-30T19:03:42.401Z,7.17
2018-08-30T19:06:12.242Z,11.33
2018-08-30T19:08:42.101Z,5.97
2018-08-30T19:11:11.211Z,6.07
2018-08-30T19:13:40.316Z,6.43
2018-08-30T19:16:15.178Z,5.57
2018-08-30T19:18:50.319Z,7.07
2018-08-30T19:21:19.673Z,5.83
2018-08-30T19:23:49.221Z,9.95
2018-08-30T19:26:18.785Z,16.97
2018-08-30T19:28:48.164Z,8.63
2018-08-30T19:31:17.471Z,4.90
2018-08-30T19:33:46.586Z,7.23
2018-08-30T19:36:21.229Z,6.90
2018-08-30T19:38:50.796Z,5.90
2018-08-30T19:41:22.288Z,8.58
2018-08-30T19:43:52.469Z,8.83
2018-08-30T19:46:22.810Z,3.83
2018-08-30T19:48:52.304Z,6.23
2018-08-30T19:51:21.405Z,6.17
2018-08-30T19:53:51.037Z,4.60
2018-08-30T19:56:20.341Z,8.30
2018-08-30T19:58:49.703Z,6.00
2018-08-30T20:01:18.993Z,8.97
2018-08-30T20:03:48.098Z,6.50
2018-08-30T20:06:17.190Z,3.80
2018-08-30T20:08:46.297Z,5.87
2018-08-30T20:11:15.634Z,6.20
2018-08-30T20:13:44.996Z,4.00
2018-08-30T20:16:14.364Z,7.00
2018-08-30T20:18:43.681Z,7.20
2018-08-30T20:21:13.034Z,6.53
2018-08-30T20:23:42.563Z,5.43
2018-08-30T20:26:11.656Z,4.80
2018-08-30T20:28:41.005Z,10.03
2018-08-30T20:31:10.578Z,8.37
2018-08-30T20:33:40.141Z,7.00
2018-08-30T20:36:09.981Z,9.40
2018-08-30T20:38:39.339Z,8.23
2018-08-30T20:41:08.692Z,8.90
2018-08-30T20:43:38.184Z,3.00
2018-08-30T20:46:07.836Z,6.77
2018-08-30T20:48:36.933Z,10.43
2018-08-30T20:51:06.277Z,5.33
2018-08-30T20:53:36.332Z,6.73
2018-08-30T20:56:05.611Z,3.83
2018-08-30T20:58:34.929Z,5.53
2018-08-30T21:01:04.242Z,5.10
2018-08-30T21:03:33.579Z,4.37
2018-08-30T21:06:03.141Z,3.70
2018-08-30T21:08:32.876Z,4.50
2018-08-30T21:11:02.676Z,3.47
2018-08-30T21:13:32.039Z,4.00
2018-08-30T21:16:01.809Z,3.57
2018-08-30T21:18:31.366Z,13.37
2018-08-30T21:21:01.701Z,4.40
2018-08-30T21:23:30.695Z,5.15
2018-08-30T21:26:00.045Z,8.03
2018-08-30T21:28:29.364Z,7.80
2018-08-30T21:30:58.697Z,6.00
2018-08-30T21:33:28.252Z,3.60
2018-08-30T21:35:57.584Z,10.45
2018-08-30T21:38:26.931Z,3.70
2018-08-30T21:40:56.736Z,5.40
2018-08-30T21:43:26.043Z,4.40
2018-08-30T21:45:55.772Z,3.70
2018-08-30T21:48:25.317Z,4.80
2018-08-30T21:50:54.632Z,3.30
2018-08-30T21:53:23.986Z,7.00
2018-08-30T21:55:53.525Z,5.10
2018-08-30T21:58:22.851Z,11.67
2018-08-30T22:00:52.469Z,3.60
2018-08-30T22:03:22.156Z,10.93
2018-08-30T22:05:51.470Z,6.43
2018-08-30T22:08:20.819Z,6.97
2018-08-30T22:10:50.394Z,7.03
2018-08-30T22:13:20.005Z,5.57
2018-08-30T22:15:49.522Z,5.37
2018-08-30T22:18:19.052Z,5.80
2018-08-30T22:20:48.872Z,5.53
2018-08-30T22:23:18.532Z,7.03
2018-08-30T22:25:47.881Z,6.20
2018-08-30T22:28:17.452Z,3.07
2018-08-30T22:30:46.996Z,5.30
2018-08-30T22:33:16.588Z,4.03
2018-08-30T22:35:46.144Z,4.07
2018-08-30T22:38:15.697Z,3.23
2018-08-30T22:40:45.302Z,5.27
2018-08-30T22:43:14.792Z,5.07
2018-08-30T22:45:44.718Z,8.47
2018-08-30T22:48:14.080Z,8.37
2018-08-30T22:50:43.433Z,6.00
2018-08-30T22:53:12.753Z,11.60
2018-08-30T22:55:42.310Z,3.23
2018-08-30T22:58:11.632Z,2.90
2018-08-30T23:00:41.017Z,5.17
2018-08-30T23:03:10.321Z,9.37
2018-08-30T23:05:39.677Z,5.90
2018-08-30T23:08:09.249Z,4.67
2018-08-30T23:10:38.567Z,6.87
2018-08-30T23:13:07.844Z,10.20
2018-08-30T23:15:37.158Z,4.50
2018-08-30T23:18:06.508Z,3.42
2018-08-30T23:20:35.845Z,5.30
2018-08-30T23:23:04.964Z,4.30
2018-08-30T23:25:34.349Z,4.70
2018-08-30T23:28:03.845Z,6.87
2018-08-30T23:30:33.039Z,6.97
2018-08-30T23:33:02.249Z,3.70
2018-08-30T23:35:31.576Z,8.10
2018-08-30T23:38:01.283Z,7.30
2018-08-30T23:40:31.175Z,6.93
2018-08-30T23:43:00.262Z,8.00
2018-08-30T23:45:29.588Z,6.50
2018-08-30T23:47:58.894Z,6.60
2018-08-30T23:50:28.217Z,8.45
2018-08-30T23:52:57.543Z,12.17
2018-08-30T23:55:26.956Z,5.40
2018-08-30T23:58:07.657Z,7.03
